Time;durP1;ratioP1;P1;durP2;ratioP2;P2;SDS_P1;SDS_P2;PMS_P1;PMS_P2;Temp;Humidity;BMP_temperature;BMP_pressure;BME280_temperature;BME280_humidity;BME280_pressure;Samples;Min_cycle;Max_cycle;Signal;HPM_P1;HPM_P2
2021/04/21 00:14:32;;;;;;;;;;;;;;;;;;5085897;28;20385;-56
2021/04/21 00:17:00;;;;;;;0.10;0.10;;;;;;;;;;5084476;28;19912;-58
2021/04/21 00:19:27;;;;;;;0.10;0.10;;;;;;;;;;5069732;28;20045;-58
2021/04/21 00:21:55;;;;;;;0.10;0.10;;;;;;;;;;5076530;28;20032;-58
2021/04/21 00:24:21;;;;;;;0.50;0.50;;;;;;;;;;5081323;28;20021;-59
2021/04/21 00:26:48;;;;;;;0.20;0.20;;;;;;;;;;5084284;28;20031;-57
2021/04/21 00:29:15;;;;;;;0.10;0.10;;;;;;;;;;5084641;28;20115;-55
2021/04/21 00:31:43;;;;;;;0.10;0.10;;;;;;;;;;5083527;28;20043;-57
2021/04/21 00:34:11;;;;;;;0.10;0.10;;;;;;;;;;5081011;28;20027;-57
2021/04/21 00:36:38;;;;;;;0.10;0.10;;;;;;;;;;5081134;28;20017;-55
2021/04/21 00:39:04;;;;;;;0.10;0.10;;;;;;;;;;5081069;28;20150;-56
2021/04/21 00:41:55;;;;;;;0.10;0.10;;;;;;;;;;5069291;28;20032;-57
2021/04/21 00:44:41;;;;;;;0.10;0.10;;;;;;;;;;5099069;28;20043;-57
2021/04/21 00:47:07;;;;;;;;;;;;;;;;;;5083921;28;20107;-55
2021/04/21 00:49:33;;;;;;;;;;;;;;;;;;5080459;28;20000;-56
2021/04/21 00:51:59;;;;;;;;;;;;;;;;;;5078598;28;19909;-56
2021/04/21 00:54:25;;;;;;;;;;;;;;;;;;5072399;28;19908;-53
2021/04/21 00:56:51;;;;;;;;;;;;;;;;;;5083148;28;19962;-56
2021/04/21 00:59:42;;;;;;;0.20;0.20;;;;;;;;;;5083465;28;19931;-56
2021/04/21 01:02:10;;;;;;;0.20;0.20;;;;;;;;;;5082764;28;20040;-57
2021/04/21 01:04:37;;;;;;;0.10;0.10;;;;;;;;;;5094201;28;20033;-58
2021/04/21 01:07:05;;;;;;;0.10;0.10;;;;;;;;;;5073574;28;20032;-54
2021/04/21 01:09:32;;;;;;;0.10;0.10;;;;;;;;;;5073603;28;20021;-57
2021/04/21 01:12:05;;;;;;;0.20;0.20;;;;;;;;;;5068896;28;20028;-56
2021/04/21 01:14:35;;;;;;;0.20;0.20;;;;;;;;;;5075669;28;20421;-55
2021/04/21 01:17:07;;;;;;;0.20;0.20;;;;;;;;;;5069282;28;20040;-55
2021/04/21 01:19:45;;;;;;;0.10;0.10;;;;;;;;;;5071037;28;20036;-52
2021/04/21 01:22:14;;;;;;;0.20;0.20;;;;;;;;;;5071471;28;20375;-57
2021/04/21 01:24:57;;;;;;;0.20;0.20;;;;;;;;;;5069969;28;20081;-55
2021/04/21 01:27:34;;;;;;;0.20;0.20;;;;;;;;;;5071949;28;20039;-56
2021/04/21 01:30:01;;;;;;;1.48;1.48;;;;;;;;;;5069721;28;20025;-56
2021/04/21 01:32:30;;;;;;;6.43;3.15;;;;;;;;;;5070947;28;20033;-55
2021/04/21 01:34:56;;;;;;;0.22;0.22;;;;;;;;;;5073156;28;20490;-57
2021/04/21 01:37:34;;;;;;;0.13;0.13;;;;;;;;;;5071053;28;20125;-58
2021/04/21 01:40:09;;;;;;;0.20;0.20;;;;;;;;;;5069882;28;20036;-55
2021/04/21 01:42:35;;;;;;;;;;;;;;;;;;5071304;28;20036;-59
2021/04/21 01:45:01;;;;;;;;;;;;;;;;;;5071963;28;20374;-57
2021/04/21 01:47:27;;;;;;;;;;;;;;;;;;5071201;28;19908;-58
2021/04/21 01:49:53;;;;;;;;;;;;;;;;;;5073518;28;19971;-57
2021/04/21 01:52:31;;;;;;;0.20;0.20;;;;;;;;;;5070846;28;20301;-54
2021/04/21 01:54:59;;;;;;;0.10;0.10;;;;;;;;;;5070851;28;20029;-58
2021/04/21 01:57:42;;;;;;;0.20;0.20;;;;;;;;;;5070753;28;20024;-58
2021/04/21 02:00:11;;;;;;;0.20;0.20;;;;;;;;;;5070320;28;20036;-56
2021/04/21 02:02:46;;;;;;;0.13;0.13;;;;;;;;;;5069369;28;20040;-57
2021/04/21 02:05:16;;;;;;;0.10;0.10;;;;;;;;;;5072008;28;20028;-55
2021/04/21 02:07:50;;;;;;;0.10;0.10;;;;;;;;;;5070790;28;20039;-56
2021/04/21 02:10:35;;;;;;;0.20;0.20;;;;;;;;;;5069620;28;20055;-56
2021/04/21 02:13:18;;;;;;;0.10;0.10;;;;;;;;;;5070819;28;20036;-57
2021/04/21 02:15:51;;;;;;;0.10;0.10;;;;;;;;;;5070089;28;20066;-56
2021/04/21 02:18:36;;;;;;;0.20;0.20;;;;;;;;;;5070323;28;20024;-56
2021/04/21 02:21:05;;;;;;;0.20;0.20;;;;;;;;;;5070532;28;20033;-57
2021/04/21 02:23:44;;;;;;;0.20;0.20;;;;;;;;;;5054323;28;20052;-55
2021/04/21 02:26:16;;;;;;;0.10;0.10;;;;;;;;;;5067760;28;20028;-56
2021/04/21 02:28:47;;;;;;;0.20;0.20;;;;;;;;;;5070236;28;20097;-58
2021/04/21 02:31:30;;;;;;;0.77;0.77;;;;;;;;;;5070310;28;20052;-57
2021/04/21 02:34:10;;;;;;;1.00;1.00;;;;;;;;;;5070625;28;20557;-57
2021/04/21 02:36:41;;;;;;;0.20;0.20;;;;;;;;;;5070715;28;20074;-57
2021/04/21 02:39:26;;;;;;;0.10;0.10;;;;;;;;;;5070589;28;20032;-58
2021/04/21 02:41:52;;;;;;;0.20;0.20;;;;;;;;;;5068425;28;20036;-57
2021/04/21 02:44:21;;;;;;;3.88;1.73;;;;;;;;;;5069914;28;20040;-55
2021/04/21 02:47:06;;;;;;;0.20;0.20;;;;;;;;;;5072154;28;20035;-55
2021/04/21 02:49:32;;;;;;;0.20;0.20;;;;;;;;;;5068776;28;20119;-55
2021/04/21 02:52:01;;;;;;;0.20;0.20;;;;;;;;;;5069659;28;20032;-55
2021/04/21 02:54:39;;;;;;;0.20;0.20;;;;;;;;;;5069709;28;20048;-56
2021/04/21 02:57:14;;;;;;;0.20;0.20;;;;;;;;;;5069710;28;20024;-56
2021/04/21 02:59:45;;;;;;;0.20;0.20;;;;;;;;;;5054500;28;20021;-55
2021/04/21 03:02:29;;;;;;;0.10;0.10;;;;;;;;;;5067754;28;20116;-55
2021/04/21 03:04:55;;;;;;;0.20;0.20;;;;;;;;;;5057554;28;20025;-56
2021/04/21 03:07:44;;;;;;;0.20;0.20;;;;;;;;;;5067505;28;20028;-54
2021/04/21 03:10:12;;;;;;;0.22;0.22;;;;;;;;;;5044633;28;20037;-58
2021/04/21 03:12:40;;;;;;;0.20;0.20;;;;;;;;;;5044311;28;20041;-57
2021/04/21 03:15:11;;;;;;;0.20;0.20;;;;;;;;;;5044749;28;20129;-55
2021/04/21 03:17:39;;;;;;;0.20;0.20;;;;;;;;;;5048873;28;20041;-56
2021/04/21 03:20:12;;;;;;;0.20;0.20;;;;;;;;;;5046019;28;20098;-54
2021/04/21 03:22:39;;;;;;;0.20;0.20;;;;;;;;;;5049054;28;20045;-57
2021/04/21 03:25:13;;;;;;;0.20;0.20;;;;;;;;;;5048632;28;20512;-55
2021/04/21 03:27:43;;;;;;;0.20;0.20;;;;;;;;;;5048864;28;20037;-55
2021/04/21 03:30:13;;;;;;;0.20;0.20;;;;;;;;;;5048157;28;20033;-58
2021/04/21 03:32:41;;;;;;;0.22;0.22;;;;;;;;;;5048505;28;20040;-57
2021/04/21 03:35:10;;;;;;;0.38;0.38;;;;;;;;;;5049057;28;20041;-57
2021/04/21 03:37:47;;;;;;;0.20;0.20;;;;;;;;;;5043388;28;20037;-57
2021/04/21 03:40:14;;;;;;;0.20;0.20;;;;;;;;;;5043695;28;20044;-56
2021/04/21 03:42:40;;;;;;;0.20;0.20;;;;;;;;;;5043271;28;20068;-57
2021/04/21 03:45:07;;;;;;;0.20;0.20;;;;;;;;;;5043650;28;20120;-56
2021/04/21 03:47:34;;;;;;;0.30;0.30;;;;;;;;;;5061685;28;20032;-56
2021/04/21 03:50:00;;;;;;;0.30;0.30;;;;;;;;;;5071146;28;20443;-57
2021/04/21 03:52:27;;;;;;;0.30;0.30;;;;;;;;;;5069081;28;20016;-56
2021/04/21 03:54:55;;;;;;;0.20;0.20;;;;;;;;;;5069323;28;20024;-57
2021/04/21 03:57:23;;;;;;;0.77;0.77;;;;;;;;;;5069215;28;20048;-53
2021/04/21 03:59:49;;;;;;;0.30;0.30;;;;;;;;;;5068024;28;20469;-56
2021/04/21 04:02:16;;;;;;;0.20;0.20;;;;;;;;;;5069742;28;20083;-57
2021/04/21 04:04:46;;;;;;;0.20;0.20;;;;;;;;;;5071263;28;20359;-55
2021/04/21 04:07:13;;;;;;;1.42;0.45;;;;;;;;;;5067226;28;20573;-54
2021/04/21 04:09:42;;;;;;;1.05;1.05;;;;;;;;;;5069243;28;20081;-54
2021/04/21 04:12:09;;;;;;;0.20;0.20;;;;;;;;;;5068826;28;20044;-56
2021/04/21 04:14:38;;;;;;;0.30;0.30;;;;;;;;;;5069402;28;20029;-56
2021/04/21 04:17:05;;;;;;;0.30;0.30;;;;;;;;;;5071098;28;20040;-57
2021/04/21 04:19:33;;;;;;;0.30;0.30;;;;;;;;;;5068325;28;20422;-56
2021/04/21 04:21:59;;;;;;;0.25;0.25;;;;;;;;;;5068841;28;20039;-56
2021/04/21 04:24:26;;;;;;;0.50;0.50;;;;;;;;;;5069149;28;20083;-55
2021/04/21 04:26:54;;;;;;;0.20;0.20;;;;;;;;;;5068610;28;20016;-56
2021/04/21 04:29:21;;;;;;;0.47;0.47;;;;;;;;;;5069067;28;20074;-56
2021/04/21 04:31:48;;;;;;;0.30;0.30;;;;;;;;;;5071158;28;20027;-56
2021/04/21 04:34:17;;;;;;;0.28;0.28;;;;;;;;;;5068817;28;20032;-55
2021/04/21 04:36:43;;;;;;;0.20;0.20;;;;;;;;;;5069114;28;20524;-53
2021/04/21 04:39:10;;;;;;;0.20;0.20;;;;;;;;;;5067532;28;20028;-57
2021/04/21 04:41:37;;;;;;;0.30;0.30;;;;;;;;;;5068712;28;20044;-57
2021/04/21 04:44:03;;;;;;;0.20;0.20;;;;;;;;;;5070937;28;20529;-57
2021/04/21 04:46:31;;;;;;;0.30;0.30;;;;;;;;;;5068249;28;20436;-56
2021/04/21 04:49:04;;;;;;;0.20;0.20;;;;;;;;;;5069564;28;20578;-55
2021/04/21 04:51:33;;;;;;;0.20;0.20;;;;;;;;;;5072305;28;20021;-57
2021/04/21 04:54:02;;;;;;;0.20;0.20;;;;;;;;;;5071781;28;20409;-57
2021/04/21 04:56:28;;;;;;;0.20;0.20;;;;;;;;;;5071944;28;20020;-56
2021/04/21 04:58:55;;;;;;;0.30;0.30;;;;;;;;;;5078901;28;20387;-53
2021/04/21 05:01:22;;;;;;;0.20;0.20;;;;;;;;;;5070431;28;20569;-58
2021/04/21 05:03:49;;;;;;;0.20;0.20;;;;;;;;;;5080282;28;20028;-56
2021/04/21 05:06:18;;;;;;;0.30;0.30;;;;;;;;;;5079136;28;20033;-56
2021/04/21 05:08:45;;;;;;;0.15;0.15;;;;;;;;;;5075198;28;20043;-55
2021/04/21 05:11:16;;;;;;;0.20;0.20;;;;;;;;;;5082554;28;20080;-55
2021/04/21 05:13:46;;;;;;;0.20;0.20;;;;;;;;;;5080190;28;20037;-54
2021/04/21 05:16:13;;;;;;;0.20;0.20;;;;;;;;;;5072311;28;20071;-58
2021/04/21 05:18:42;;;;;;;0.20;0.20;;;;;;;;;;5069556;28;20021;-57
2021/04/21 05:21:37;;;;;;;0.20;0.20;;;;;;;;;;5070428;28;20032;-58
2021/04/21 05:24:22;;;;;;;0.20;0.20;;;;;;;;;;5065719;28;20055;-52
2021/04/21 05:27:06;;;;;;;0.30;0.30;;;;;;;;;;5064542;28;20534;-54
2021/04/21 05:29:47;;;;;;;0.20;0.20;;;;;;;;;;5068876;28;20025;-52
2021/04/21 05:32:20;;;;;;;0.20;0.20;;;;;;;;;;5070258;28;20036;-54
2021/04/21 05:34:58;;;;;;;0.20;0.20;;;;;;;;;;5071585;28;20037;-53
2021/04/21 05:37:36;;;;;;;0.10;0.10;;;;;;;;;;5070128;28;20035;-55
2021/04/21 05:40:15;;;;;;;0.20;0.20;;;;;;;;;;5070187;28;20025;-54
2021/04/21 05:43:01;;;;;;;0.20;0.20;;;;;;;;;;5069638;28;20040;-53
2021/04/21 05:45:46;;;;;;;0.20;0.20;;;;;;;;;;5069969;28;20037;-56
2021/04/21 05:48:20;;;;;;;0.22;0.22;;;;;;;;;;5069862;28;20485;-56
2021/04/21 05:51:17;;;;;;;0.20;0.20;;;;;;;;;;5070094;28;20031;-54
2021/04/21 05:53:52;;;;;;;0.50;0.50;;;;;;;;;;5055083;28;20037;-53
2021/04/21 05:56:24;;;;;;;0.57;0.57;;;;;;;;;;5071763;28;20029;-56
2021/04/21 05:59:09;;;;;;;0.20;0.20;;;;;;;;;;5072145;28;20031;-54
2021/04/21 06:01:45;;;;;;;0.10;0.10;;;;;;;;;;5072102;28;20028;-58
2021/04/21 06:04:11;;;;;;;0.35;0.35;;;;;;;;;;5069459;28;20048;-51
2021/04/21 06:06:37;;;;;;;0.10;0.10;;;;;;;;;;5069171;28;20008;-59
2021/04/21 06:09:07;;;;;;;0.20;0.20;;;;;;;;;;5069447;28;20039;-53
2021/04/21 06:11:34;;;;;;;0.10;0.10;;;;;;;;;;5053415;28;20024;-52
2021/04/21 06:14:02;;;;;;;0.10;0.10;;;;;;;;;;5067151;28;20045;-54
2021/04/21 06:16:29;;;;;;;0.10;0.10;;;;;;;;;;5065458;28;20033;-52
2021/04/21 06:18:59;;;;;;;0.20;0.20;;;;;;;;;;5063365;28;20436;-54
2021/04/21 06:21:26;;;;;;;0.17;0.17;;;;;;;;;;5058980;28;20055;-51
2021/04/21 06:23:57;;;;;;;0.10;0.10;;;;;;;;;;5068551;28;20115;-54
2021/04/21 06:26:24;;;;;;;0.10;0.10;;;;;;;;;;5054195;28;20075;-57
2021/04/21 06:29:01;;;;;;;0.20;0.20;;;;;;;;;;5063025;28;20032;-55
2021/04/21 06:31:34;;;;;;;0.20;0.20;;;;;;;;;;5060949;28;20029;-55
2021/04/21 06:34:01;;;;;;;0.10;0.10;;;;;;;;;;5065243;28;20047;-55
2021/04/21 06:36:34;;;;;;;0.20;0.20;;;;;;;;;;5067029;28;20016;-52
2021/04/21 06:39:00;;;;;;;0.20;0.20;;;;;;;;;;5065797;28;20029;-55
2021/04/21 06:41:27;;;;;;;0.20;0.20;;;;;;;;;;5063731;28;20036;-55
2021/04/21 06:43:55;;;;;;;0.20;0.20;;;;;;;;;;5068798;28;20044;-56
2021/04/21 06:46:21;;;;;;;0.20;0.20;;;;;;;;;;5066749;28;20017;-52
2021/04/21 06:48:52;;;;;;;0.20;0.20;;;;;;;;;;5069059;28;20029;-55
2021/04/21 06:51:18;;;;;;;0.17;0.17;;;;;;;;;;5068644;28;20063;-53
2021/04/21 06:53:45;;;;;;;0.10;0.10;;;;;;;;;;5069671;28;20044;-53
2021/04/21 06:56:12;;;;;;;0.20;0.20;;;;;;;;;;5069583;28;20498;-52
2021/04/21 06:58:39;;;;;;;0.10;0.10;;;;;;;;;;5070027;28;20032;-55
2021/04/21 07:01:13;;;;;;;0.10;0.10;;;;;;;;;;5068238;28;20044;-57
2021/04/21 07:03:39;;;;;;;0.10;0.10;;;;;;;;;;5067403;28;20410;-53
2021/04/21 07:06:05;;;;;;;0.10;0.10;;;;;;;;;;5068115;28;20021;-57
2021/04/21 07:08:33;;;;;;;0.10;0.10;;;;;;;;;;5066463;28;20035;-54
2021/04/21 07:11:00;;;;;;;0.10;0.10;;;;;;;;;;5069807;28;20202;-54
2021/04/21 07:13:28;;;;;;;0.10;0.10;;;;;;;;;;5067633;28;20047;-55
2021/04/21 07:15:56;;;;;;;0.10;0.10;;;;;;;;;;5067720;28;20432;-59
2021/04/21 07:18:24;;;;;;;0.10;0.10;;;;;;;;;;5068162;28;20031;-55
2021/04/21 07:20:50;;;;;;;0.05;0.05;;;;;;;;;;5068568;28;20035;-56
2021/04/21 07:23:23;;;;;;;0.10;0.10;;;;;;;;;;5067370;28;20036;-54
2021/04/21 07:25:51;;;;;;;0.10;0.10;;;;;;;;;;5066430;28;20031;-55
2021/04/21 07:28:18;;;;;;;0.90;0.90;;;;;;;;;;5067025;28;20021;-56
2021/04/21 07:30:44;;;;;;;0.17;0.17;;;;;;;;;;5067811;28;20024;-56
2021/04/21 07:33:10;;;;;;;0.15;0.15;;;;;;;;;;5067718;28;20020;-56
2021/04/21 07:35:37;;;;;;;0.10;0.10;;;;;;;;;;5066203;28;20402;-60
2021/04/21 07:38:03;;;;;;;0.10;0.10;;;;;;;;;;5063375;28;20028;-55
2021/04/21 07:40:34;;;;;;;0.10;0.10;;;;;;;;;;5066408;28;20116;-57
2021/04/21 07:43:06;;;;;;;0.10;0.10;;;;;;;;;;5066301;28;20040;-63
2021/04/21 07:45:49;;;;;;;0.10;0.10;;;;;;;;;;5063768;28;20033;-63
2021/04/21 07:48:34;;;;;;;0.70;0.50;;;;;;;;;;5060284;28;20028;-59
2021/04/21 07:51:00;;;;;;;0.10;0.10;;;;;;;;;;5065117;28;20036;-57
2021/04/21 07:53:26;;;;;;;0.00;0.00;;;;;;;;;;5064156;28;20467;-57
2021/04/21 07:56:04;;;;;;;0.10;0.10;;;;;;;;;;5064401;28;20028;-59
2021/04/21 07:58:31;;;;;;;1.00;1.00;;;;;;;;;;5064872;28;20044;-59
2021/04/21 08:00:57;;;;;;;0.00;0.00;;;;;;;;;;5061259;28;20020;-59
2021/04/21 08:03:26;;;;;;;0.00;0.00;;;;;;;;;;5064818;28;20044;-60
2021/04/21 08:05:52;;;;;;;0.10;0.10;;;;;;;;;;5065925;28;20032;-58
2021/04/21 08:08:28;;;;;;;0.00;0.00;;;;;;;;;;5065088;28;20040;-57
2021/04/21 08:10:54;;;;;;;0.52;0.52;;;;;;;;;;5064508;28;20036;-57
2021/04/21 08:13:40;;;;;;;0.25;0.25;;;;;;;;;;5065860;28;20174;-59
2021/04/21 08:16:19;;;;;;;0.00;0.00;;;;;;;;;;5062713;28;20509;-58
2021/04/21 08:18:45;;;;;;;0.00;0.00;;;;;;;;;;5061713;28;20116;-57
2021/04/21 08:21:11;;;;;;;0.45;0.45;;;;;;;;;;5066330;28;20029;-60
2021/04/21 08:23:37;;;;;;;0.10;0.10;;;;;;;;;;5065944;28;20040;-58
2021/04/21 08:26:04;;;;;;;0.10;0.10;;;;;;;;;;5071908;28;20534;-59
2021/04/21 08:28:30;;;;;;;0.10;0.10;;;;;;;;;;5070463;28;20478;-62
2021/04/21 08:30:58;;;;;;;0.10;0.10;;;;;;;;;;5069326;28;20012;-59
2021/04/21 08:33:24;;;;;;;0.40;0.40;;;;;;;;;;5069310;28;20031;-57
2021/04/21 08:35:50;;;;;;;0.10;0.10;;;;;;;;;;5070192;28;20021;-59
2021/04/21 08:38:17;;;;;;;0.47;0.47;;;;;;;;;;5055895;28;20021;-59
2021/04/21 08:40:43;;;;;;;0.10;0.10;;;;;;;;;;5059768;28;20083;-58
2021/04/21 08:43:09;;;;;;;0.10;0.10;;;;;;;;;;5053588;28;20677;-59
2021/04/21 08:45:38;;;;;;;0.10;0.10;;;;;;;;;;5056441;28;20098;-59
2021/04/21 08:48:05;;;;;;;6.78;1.40;;;;;;;;;;5052177;28;20025;-59
2021/04/21 08:50:41;;;;;;;0.10;0.10;;;;;;;;;;5055826;28;20039;-58
2021/04/21 08:53:08;;;;;;;0.10;0.10;;;;;;;;;;5054017;28;20021;-61
2021/04/21 08:55:34;;;;;;;1.15;0.52;;;;;;;;;;5062501;28;20037;-57
2021/04/21 08:58:01;;;;;;;1.00;1.00;;;;;;;;;;5053734;28;20036;-62
2021/04/21 09:00:28;;;;;;;0.10;0.10;;;;;;;;;;5054493;28;20039;-58
2021/04/21 09:02:54;;;;;;;0.10;0.10;;;;;;;;;;5053622;28;20043;-60
2021/04/21 09:05:20;;;;;;;2.45;0.68;;;;;;;;;;5055465;28;20025;-59
2021/04/21 09:07:47;;;;;;;0.15;0.15;;;;;;;;;;5056621;28;20090;-62
2021/04/21 09:10:14;;;;;;;0.55;0.55;;;;;;;;;;5054944;28;20043;-59
2021/04/21 09:12:41;;;;;;;5.03;3.47;;;;;;;;;;5054185;28;20028;-59
2021/04/21 09:15:08;;;;;;;1.60;1.50;;;;;;;;;;5055661;28;20479;-59
2021/04/21 09:17:51;;;;;;;0.10;0.10;;;;;;;;;;5055512;28;20528;-66
2021/04/21 09:20:18;;;;;;;0.00;0.00;;;;;;;;;;5053843;28;20037;-59
2021/04/21 09:23:01;;;;;;;0.52;0.52;;;;;;;;;;5055331;28;20403;-59
2021/04/21 09:25:33;;;;;;;0.13;0.10;;;;;;;;;;5054590;28;20027;-59
2021/04/21 09:28:00;;;;;;;0.32;0.32;;;;;;;;;;5055386;28;20033;-59
2021/04/21 09:30:26;;;;;;;0.03;0.03;;;;;;;;;;5054219;28;20035;-59
2021/04/21 09:32:54;;;;;;;0.52;0.52;;;;;;;;;;5055311;28;20047;-59
2021/04/21 09:35:22;;;;;;;1.45;1.38;;;;;;;;;;5053959;28;20067;-65
2021/04/21 09:37:49;;;;;;;0.10;0.10;;;;;;;;;;5057823;28;20410;-59
2021/04/21 09:40:32;;;;;;;0.10;0.10;;;;;;;;;;5058651;28;20042;-59
2021/04/21 09:42:58;;;;;;;0.45;0.45;;;;;;;;;;5052654;28;20191;-59
2021/04/21 09:45:34;;;;;;;0.00;0.00;;;;;;;;;;5053222;28;20115;-59
2021/04/21 09:48:35;;;;;;;0.00;0.00;;;;;;;;;;5055230;28;20033;-59
2021/04/21 09:51:02;;;;;;;0.88;0.88;;;;;;;;;;5053120;28;20040;-63
2021/04/21 09:53:30;;;;;;;0.10;0.10;;;;;;;;;;5054246;28;20110;-59
2021/04/21 09:56:06;;;;;;;2.65;2.45;;;;;;;;;;5056283;28;20067;-66
2021/04/21 09:58:35;;;;;;;0.10;0.10;;;;;;;;;;5065815;28;20032;-59
2021/04/21 10:01:02;;;;;;;0.90;0.80;;;;;;;;;;5057711;28;20117;-59
2021/04/21 10:03:28;;;;;;;0.95;0.95;;;;;;;;;;5051650;28;20398;-59
2021/04/21 10:05:54;;;;;;;2.10;0.47;;;;;;;;;;5063291;28;20459;-59
2021/04/21 10:08:22;;;;;;;1.77;1.27;;;;;;;;;;5063081;28;20032;-60
2021/04/21 10:11:01;;;;;;;5.55;3.13;;;;;;;;;;5062058;28;20035;-59
2021/04/21 10:13:39;;;;;;;2.47;2.13;;;;;;;;;;5056573;28;20044;-62
2021/04/21 10:16:06;;;;;;;6.35;2.95;;;;;;;;;;5054067;28;20032;-59
2021/04/21 10:18:33;;;;;;;1.27;0.90;;;;;;;;;;5065469;28;20093;-59
2021/04/21 10:20:59;;;;;;;4.32;0.90;;;;;;;;;;5064825;28;20040;-59
2021/04/21 10:23:25;;;;;;;1.85;1.60;;;;;;;;;;5060909;28;20402;-59
2021/04/21 10:25:51;;;;;;;4.05;2.65;;;;;;;;;;5064631;28;20096;-59
2021/04/21 10:28:18;;;;;;;0.73;0.40;;;;;;;;;;5063641;28;20375;-60
2021/04/21 10:30:44;;;;;;;1.08;0.40;;;;;;;;;;5062711;28;20029;-59
2021/04/21 10:33:10;;;;;;;0.50;0.38;;;;;;;;;;5065953;28;20107;-60
2021/04/21 10:35:36;;;;;;;0.30;0.30;;;;;;;;;;5062019;28;20496;-59
2021/04/21 10:38:03;;;;;;;1.35;1.02;;;;;;;;;;5069569;28;20024;-60
2021/04/21 10:40:31;;;;;;;0.60;0.35;;;;;;;;;;5064754;28;20502;-59
2021/04/21 10:42:59;;;;;;;1.73;1.15;;;;;;;;;;5061667;28;20097;-59
2021/04/21 10:45:27;;;;;;;6.93;2.10;;;;;;;;;;5063033;28;20031;-59
2021/04/21 10:47:54;;;;;;;0.10;0.10;;;;;;;;;;5058225;28;20033;-62
2021/04/21 10:50:40;;;;;;;5.53;2.30;;;;;;;;;;5059492;28;20030;-59
2021/04/21 10:53:06;;;;;;;1.60;1.50;;;;;;;;;;5066020;28;20047;-61
2021/04/21 10:55:34;;;;;;;1.98;1.88;;;;;;;;;;5059738;28;20032;-65
2021/04/21 10:58:01;;;;;;;19.05;17.30;;;;;;;;;;5059335;28;20036;-60
2021/04/21 11:00:31;;;;;;;0.30;0.30;;;;;;;;;;5056549;28;20041;-59
2021/04/21 11:03:01;;;;;;;4.60;4.03;;;;;;;;;;5060484;28;20048;-59
2021/04/21 11:05:28;;;;;;;13.35;7.68;;;;;;;;;;5053292;28;20473;-59
2021/04/21 11:08:05;;;;;;;0.68;0.68;;;;;;;;;;5053316;28;20027;-59
2021/04/21 11:10:32;;;;;;;4.03;3.08;;;;;;;;;;5065619;28;20461;-59
2021/04/21 11:13:01;;;;;;;2.30;1.75;;;;;;;;;;5061658;28;20036;-60
2021/04/21 11:15:34;;;;;;;1.23;1.23;;;;;;;;;;5062679;28;20032;-60
2021/04/21 11:18:23;;;;;;;0.00;0.00;;;;;;;;;;5058772;28;20091;-63
2021/04/21 11:20:49;;;;;;;6.85;2.22;;;;;;;;;;5057250;28;20029;-60
2021/04/21 11:23:33;;;;;;;0.10;0.10;;;;;;;;;;5060102;28;20064;-59
2021/04/21 11:26:18;;;;;;;29.77;5.50;;;;;;;;;;5055974;28;20207;-62
2021/04/21 11:29:03;;;;;;;5.25;3.53;;;;;;;;;;5063985;28;20497;-59
2021/04/21 11:31:51;;;;;;;5.93;3.20;;;;;;;;;;5054129;28;20026;-58
2021/04/21 11:34:27;;;;;;;6.15;4.13;;;;;;;;;;5061228;28;20056;-58
2021/04/21 11:37:12;;;;;;;4.85;3.35;;;;;;;;;;5061565;28;20063;-58
2021/04/21 11:39:41;;;;;;;5.72;5.35;;;;;;;;;;5062933;28;20029;-59
2021/04/21 11:42:26;;;;;;;4.28;1.48;;;;;;;;;;5064584;28;20187;-59
2021/04/21 11:45:01;;;;;;;2.50;2.35;;;;;;;;;;5068179;28;20169;-58
2021/04/21 11:47:34;;;;;;;8.32;7.72;;;;;;;;;;5065484;28;20048;-59
2021/04/21 11:50:00;;;;;;;1.45;0.80;;;;;;;;;;5068540;28;20123;-59
2021/04/21 11:52:45;;;;;;;0.40;0.40;;;;;;;;;;5067989;28;20367;-59
2021/04/21 11:55:31;;;;;;;2.10;2.00;;;;;;;;;;5067093;28;20056;-59
2021/04/21 11:58:03;;;;;;;0.63;0.63;;;;;;;;;;5064819;28;20281;-59
2021/04/21 12:00:30;;;;;;;4.07;3.40;;;;;;;;;;5065888;28;20538;-59
2021/04/21 12:02:57;;;;;;;2.05;1.95;;;;;;;;;;5063514;28;20518;-59
2021/04/21 12:05:25;;;;;;;0.00;0.00;;;;;;;;;;5065238;28;20082;-60
2021/04/21 12:07:51;;;;;;;1.27;0.95;;;;;;;;;;5063305;28;20025;-59
2021/04/21 12:10:19;;;;;;;5.97;3.83;;;;;;;;;;5059157;28;20033;-58
2021/04/21 12:12:45;;;;;;;0.50;0.50;;;;;;;;;;5060974;28;20037;-58
2021/04/21 12:15:11;;;;;;;0.55;0.47;;;;;;;;;;5065042;28;20040;-57
2021/04/21 12:17:48;;;;;;;9.73;3.75;;;;;;;;;;5059396;28;20565;-56
2021/04/21 12:20:22;;;;;;;10.48;5.13;;;;;;;;;;5063856;28;20528;-58
2021/04/21 12:22:48;;;;;;;0.85;0.85;;;;;;;;;;5060931;28;20032;-58
2021/04/21 12:25:14;;;;;;;6.10;4.10;;;;;;;;;;5061070;28;20029;-59
2021/04/21 12:27:41;;;;;;;4.18;2.75;;;;;;;;;;5060231;28;20384;-58
2021/04/21 12:30:08;;;;;;;18.15;7.63;;;;;;;;;;5065379;28;20513;-58
2021/04/21 12:32:35;;;;;;;2.80;1.90;;;;;;;;;;5061665;28;20024;-59
2021/04/21 12:35:01;;;;;;;2.20;1.75;;;;;;;;;;5065155;28;20025;-58
2021/04/21 12:37:27;;;;;;;12.43;2.85;;;;;;;;;;5064169;28;20075;-58
2021/04/21 12:39:53;;;;;;;8.00;4.80;;;;;;;;;;5063406;28;20078;-59
2021/04/21 12:42:20;;;;;;;3.05;2.92;;;;;;;;;;5064764;28;20028;-57
2021/04/21 12:44:47;;;;;;;2.00;1.88;;;;;;;;;;5064700;28;20077;-57
2021/04/21 12:47:13;;;;;;;1.60;0.80;;;;;;;;;;5067291;28;20028;-58
2021/04/21 12:49:46;;;;;;;5.93;2.58;;;;;;;;;;5065732;28;20031;-58
2021/04/21 12:52:19;;;;;;;7.72;3.80;;;;;;;;;;5062381;28;20020;-58
2021/04/21 12:54:50;;;;;;;14.35;5.90;;;;;;;;;;5064305;28;20675;-58
2021/04/21 12:57:16;;;;;;;11.57;6.72;;;;;;;;;;5064106;28;20497;-59
2021/04/21 12:59:42;;;;;;;0.77;0.77;;;;;;;;;;5064485;28;20029;-58
2021/04/21 13:02:13;;;;;;;3.53;1.25;;;;;;;;;;5066822;28;20028;-58
2021/04/21 13:04:40;;;;;;;7.95;6.22;;;;;;;;;;5062603;28;20040;-59
2021/04/21 13:07:17;;;;;;;3.25;2.92;;;;;;;;;;5064349;28;20162;-59
2021/04/21 13:09:43;;;;;;;2.10;1.95;;;;;;;;;;5062902;28;20024;-57
2021/04/21 13:12:15;;;;;;;13.38;4.53;;;;;;;;;;5067486;28;20025;-59
2021/04/21 13:14:42;;;;;;;7.22;3.15;;;;;;;;;;5066007;28;20064;-59
2021/04/21 13:17:09;;;;;;;0.40;0.40;;;;;;;;;;5070509;28;20025;-59
2021/04/21 13:19:39;;;;;;;1.77;1.70;;;;;;;;;;5068862;28;20523;-58
2021/04/21 13:22:06;;;;;;;14.85;5.85;;;;;;;;;;5064215;28;20039;-57
2021/04/21 13:24:39;;;;;;;12.90;5.40;;;;;;;;;;5065809;28;20028;-59
2021/04/21 13:27:06;;;;;;;6.00;3.33;;;;;;;;;;5068215;28;20082;-59
2021/04/21 13:29:36;;;;;;;12.63;5.47;;;;;;;;;;5068905;28;20027;-59
2021/04/21 13:32:09;;;;;;;14.48;7.32;;;;;;;;;;5068056;28;20112;-58
2021/04/21 13:34:35;;;;;;;6.10;4.38;;;;;;;;;;5068031;28;20448;-58
2021/04/21 13:37:02;;;;;;;9.43;2.88;;;;;;;;;;5067092;28;20032;-58
2021/04/21 13:39:29;;;;;;;2.47;2.28;;;;;;;;;;5066985;28;20456;-59
2021/04/21 13:41:55;;;;;;;10.13;6.38;;;;;;;;;;5067458;28;20035;-58
2021/04/21 13:44:21;;;;;;;11.43;4.80;;;;;;;;;;5069277;28;20044;-58
2021/04/21 13:46:47;;;;;;;9.50;6.10;;;;;;;;;;5070213;28;20052;-58
2021/04/21 13:49:14;;;;;;;7.43;4.82;;;;;;;;;;5060612;28;20395;-59
2021/04/21 13:51:40;;;;;;;2.85;2.65;;;;;;;;;;5060295;28;20078;-59
2021/04/21 13:54:06;;;;;;;13.18;6.78;;;;;;;;;;5068054;28;20402;-59
2021/04/21 13:56:32;;;;;;;4.43;3.05;;;;;;;;;;5069698;28;20447;-58
2021/04/21 13:58:59;;;;;;;16.98;5.32;;;;;;;;;;5057383;28;20029;-61
2021/04/21 14:01:25;;;;;;;10.23;5.35;;;;;;;;;;5058207;28;20053;-58
2021/04/21 14:03:51;;;;;;;9.30;5.80;;;;;;;;;;5057484;28;20036;-58
2021/04/21 14:06:17;;;;;;;8.02;4.88;;;;;;;;;;5069605;28;20028;-59
2021/04/21 14:08:43;;;;;;;7.50;3.50;;;;;;;;;;5067468;28;20167;-59
2021/04/21 14:11:09;;;;;;;9.02;6.45;;;;;;;;;;5071374;28;20077;-59
2021/04/21 14:13:36;;;;;;;15.82;6.68;;;;;;;;;;5069558;28;20037;-59
2021/04/21 14:16:02;;;;;;;13.95;8.63;;;;;;;;;;5068521;28;20025;-59
2021/04/21 14:18:28;;;;;;;17.48;3.67;;;;;;;;;;5069057;28;20559;-59
2021/04/21 14:20:54;;;;;;;19.83;8.10;;;;;;;;;;5068600;28;20050;-59
2021/04/21 14:23:20;;;;;;;4.60;2.83;;;;;;;;;;5072555;28;20589;-58
2021/04/21 14:25:46;;;;;;;13.15;6.55;;;;;;;;;;5070925;28;20012;-58
2021/04/21 14:28:12;;;;;;;26.08;12.80;;;;;;;;;;5059311;28;20043;-58
2021/04/21 14:30:38;;;;;;;7.65;2.78;;;;;;;;;;5061942;28;20012;-59
2021/04/21 14:33:04;;;;;;;9.80;5.03;;;;;;;;;;5069314;28;20037;-58
2021/04/21 14:35:30;;;;;;;20.50;11.95;;;;;;;;;;5069515;28;20055;-58
2021/04/21 14:37:57;;;;;;;10.32;7.50;;;;;;;;;;5071263;28;20093;-58
2021/04/21 14:40:23;;;;;;;3.72;3.55;;;;;;;;;;5068478;28;20094;-59
2021/04/21 14:42:49;;;;;;;14.80;7.22;;;;;;;;;;5068334;28;20032;-57
2021/04/21 14:45:15;;;;;;;5.47;4.22;;;;;;;;;;5070274;28;20028;-59
2021/04/21 14:47:41;;;;;;;17.25;8.65;;;;;;;;;;5068946;28;20040;-58
2021/04/21 14:50:08;;;;;;;8.35;6.18;;;;;;;;;;5071027;28;20024;-58
2021/04/21 14:52:35;;;;;;;4.28;2.40;;;;;;;;;;5070766;28;20027;-59
2021/04/21 14:55:01;;;;;;;8.40;5.00;;;;;;;;;;5070193;28;20708;-59
2021/04/21 14:57:27;;;;;;;7.97;5.20;;;;;;;;;;5069331;28;20250;-57
2021/04/21 14:59:54;;;;;;;0.70;0.70;;;;;;;;;;5067085;28;20017;-59
2021/04/21 15:02:20;;;;;;;6.68;4.10;;;;;;;;;;5063100;28;20033;-57
2021/04/21 15:04:46;;;;;;;5.65;4.72;;;;;;;;;;5064890;28;20028;-59
2021/04/21 15:07:12;;;;;;;15.38;8.90;;;;;;;;;;5061285;28;20036;-59
2021/04/21 15:09:39;;;;;;;2.83;2.63;;;;;;;;;;5061900;28;20033;-66
2021/04/21 15:12:06;;;;;;;26.05;12.38;;;;;;;;;;5061931;28;20116;-59
2021/04/21 15:14:32;;;;;;;19.75;10.68;;;;;;;;;;5064887;28;20036;-59
2021/04/21 15:16:59;;;;;;;10.93;8.10;;;;;;;;;;5062790;28;20028;-66